Time;durP1;ratioP1;P1;durP2;ratioP2;P2;SDS_P1;SDS_P2;PMS_P1;PMS_P2;Temp;Humidity;BMP_temperature;BMP_pressure;BME280_temperature;BME280_humidity;BME280_pressure;Samples;Min_cycle;Max_cycle;Signal;HPM_P1;HPM_P2
2022/12/01 20:49:39;;;;;;;146.05;135.57;;;4.60;99.90;;;;;;1398653;24;20721;31
2022/12/01 20:52:05;;;;;;;143.75;133.25;;;4.50;99.90;;;;;;4772557;30;20520;-61
2022/12/01 20:54:30;;;;;;;144.30;133.45;;;4.50;99.90;;;;;;4774621;30;20739;-62
2022/12/01 20:56:57;;;;;;;143.07;132.57;;;4.50;99.90;;;;;;4774299;30;20644;-62
2022/12/01 20:59:23;;;;;;;139.95;129.82;;;4.50;99.90;;;;;;4774418;30;20425;-61
2022/12/01 21:01:48;;;;;;;139.93;129.80;;;4.60;99.90;;;;;;4761594;30;20571;-61
2022/12/01 21:04:14;;;;;;;141.77;131.13;;;4.60;99.90;;;;;;4777885;30;20409;-62
2022/12/01 21:06:39;;;;;;;142.35;132.23;;;4.50;99.90;;;;;;4777023;30;20859;-61
2022/12/01 21:09:06;;;;;;;137.73;127.60;;;4.50;99.90;;;;;;4776544;30;20417;-62
2022/12/01 21:14:46;;;;;;;136.50;127.00;;;4.40;99.90;;;;;;4774231;30;20436;-59
2022/12/01 21:17:23;;;;;;;137.30;127.73;;;4.40;99.90;;;;;;4770933;30;20774;-61
2022/12/01 21:20:04;;;;;;;140.38;130.60;;;4.40;99.90;;;;;;4775209;29;20435;-59
2022/12/01 21:22:30;;;;;;;138.73;128.98;;;4.40;99.90;;;;;;4774558;30;20424;-60
2022/12/01 21:25:06;;;;;;;136.07;126.65;;;4.40;99.90;;;;;;4774692;30;20397;-60
2022/12/01 21:27:32;;;;;;;136.70;127.22;;;4.40;99.90;;;;;;4775857;30;20393;-61
2022/12/01 21:29:57;;;;;;;140.93;131.20;;;4.40;99.90;;;;;;4770243;30;20481;-61
2022/12/01 21:32:30;;;;;;;131.53;122.27;;;4.50;99.90;;;;;;4771210;30;20656;-61
2022/12/01 21:35:20;;;;;;;138.40;128.63;;;4.50;99.90;;;;;;4771256;30;20940;-61
2022/12/01 21:37:47;;;;;;;142.52;132.48;;;4.40;99.90;;;;;;4763338;30;20405;-61
2022/12/01 21:40:25;;;;;;;136.35;126.70;;;4.40;99.90;;;;;;4774340;30;20541;-61
2022/12/01 21:42:51;;;;;;;132.88;123.38;;;4.40;99.90;;;;;;4774538;30;20405;-62
2022/12/01 21:45:30;;;;;;;137.75;128.13;;;4.40;99.90;;;;;;4775925;30;20839;-60
2022/12/01 21:48:04;;;;;;;133.75;124.25;;;4.40;99.90;;;;;;4776714;30;20417;-59
2022/12/01 21:50:31;;;;;;;135.50;125.93;;;4.40;99.90;;;;;;4658471;30;3582081;-60
2022/12/01 21:52:57;;;;;;;139.80;130.05;;;4.30;99.90;;;;;;4763999;30;20424;-60
2022/12/01 21:55:23;;;;;;;137.57;127.77;;;4.40;99.90;;;;;;4777846;30;20406;-59
2022/12/01 21:57:53;;;;;;;137.50;127.33;;;4.50;99.90;;;;;;4775266;30;20436;-60
2022/12/01 22:00:40;;;;;;;135.70;125.83;;;4.40;99.90;;;;;;4775856;30;20570;-60
2022/12/01 22:03:14;;;;;;;142.43;131.98;;;4.40;99.90;;;;;;4774969;30;20498;-60
2022/12/01 22:05:46;;;;;;;138.00;127.57;;;4.40;99.90;;;;;;4760397;30;20420;-63
2022/12/01 22:08:18;;;;;;;138.40;128.38;;;4.40;99.90;;;;;;4777210;30;20413;-60
2022/12/01 22:11:08;;;;;;;139.35;128.95;;;4.30;99.90;;;;;;4775294;30;20802;-60
2022/12/01 22:13:45;;;;;;;138.95;128.35;;;4.40;99.90;;;;;;4773118;30;20820;-61
2022/12/01 22:16:15;;;;;;;131.10;121.38;;;4.40;99.90;;;;;;4773688;30;20520;-61
2022/12/01 22:18:44;;;;;;;125.88;116.72;;;4.30;99.90;;;;;;4771231;30;20718;-60
2022/12/01 22:21:22;;;;;;;130.48;120.97;;;4.30;99.90;;;;;;4773097;30;20906;-61
2022/12/01 22:24:06;;;;;;;125.07;116.38;;;4.30;99.90;;;;;;4757775;30;20427;-60
2022/12/01 22:26:33;;;;;;;122.47;113.53;;;4.30;99.90;;;;;;4774539;30;20647;-60
2022/12/01 22:28:59;;;;;;;122.35;113.57;;;4.20;99.90;;;;;;4776235;30;20441;-60
2022/12/01 22:31:27;;;;;;;113.88;104.97;;;4.30;99.90;;;;;;4777065;29;20413;-59
2022/12/01 22:33:59;;;;;;;116.88;108.05;;;4.20;99.90;;;;;;4776427;30;20692;-60
2022/12/01 22:36:30;;;;;;;115.50;106.32;;;4.20;99.90;;;;;;4775122;30;20417;-60
2022/12/01 22:38:56;;;;;;;120.45;111.80;;;4.20;99.90;;;;;;4778301;30;20432;-59
2022/12/01 22:41:22;;;;;;;114.72;106.38;;;4.20;99.90;;;;;;4777575;30;20412;-60
2022/12/01 22:43:54;;;;;;;121.40;112.60;;;4.20;99.90;;;;;;4773168;30;20421;-59
2022/12/01 22:46:25;;;;;;;113.87;105.30;;;4.20;99.90;;;;;;4773642;30;20409;-58
2022/12/01 22:49:18;;;;;;;120.30;111.47;;;4.30;99.90;;;;;;4773759;30;20397;-60
2022/12/01 22:51:59;;;;;;;118.15;109.20;;;4.20;99.90;;;;;;4765512;29;20569;-59
2022/12/01 22:54:31;;;;;;;115.47;106.45;;;4.20;99.90;;;;;;4772261;30;20667;-61
2022/12/01 22:57:24;;;;;;;117.70;108.97;;;4.20;99.90;;;;;;4772760;30;20412;-61
2022/12/01 22:59:50;;;;;;;112.40;103.75;;;4.20;99.90;;;;;;4774991;30;20428;-61
2022/12/01 23:02:23;;;;;;;116.93;107.27;;;4.30;99.90;;;;;;4775512;30;20442;-61
2022/12/01 23:05:09;;;;;;;120.43;111.07;;;4.20;99.90;;;;;;4773624;30;20425;-62
2022/12/01 23:07:40;;;;;;;119.40;109.95;;;4.20;99.90;;;;;;4766674;30;20424;-59
2022/12/01 23:10:23;;;;;;;123.73;114.33;;;4.20;99.90;;;;;;4741262;30;20904;-61
2022/12/01 23:12:51;;;;;;;118.25;109.10;;;4.20;99.90;;;;;;4761259;30;20732;-61
2022/12/01 23:15:37;;;;;;;116.30;107.68;;;4.20;99.90;;;;;;4757139;30;20413;-61
2022/12/01 23:18:18;;;;;;;117.60;108.47;;;4.30;99.90;;;;;;4749426;30;20589;-61
2022/12/01 23:20:47;;;;;;;123.97;114.43;;;4.20;99.90;;;;;;4749310;30;20533;-59
2022/12/01 23:23:18;;;;;;;124.03;114.03;;;4.20;99.90;;;;;;4736386;30;20551;-60
2022/12/01 23:25:45;;;;;;;127.78;117.78;;;4.10;99.90;;;;;;4738816;30;20440;-58
2022/12/01 23:28:12;;;;;;;131.40;121.53;;;4.10;99.90;;;;;;4756668;30;20909;-61
2022/12/01 23:30:41;;;;;;;128.63;118.93;;;4.00;99.90;;;;;;4745308;30;20431;-60
2022/12/01 23:33:15;;;;;;;125.45;116.07;;;4.00;99.90;;;;;;4767639;30;20639;-61
2022/12/01 23:36:02;;;;;;;125.97;116.45;;;4.00;99.90;;;;;;4757535;30;20429;-61
2022/12/01 23:38:38;;;;;;;129.50;119.93;;;4.00;99.90;;;;;;4777614;30;20794;-60
2022/12/01 23:41:06;;;;;;;136.73;126.45;;;4.00;99.90;;;;;;4777713;30;20413;-60
2022/12/01 23:43:39;;;;;;;140.32;129.38;;;4.00;99.90;;;;;;4780003;29;20396;-61
2022/12/01 23:46:09;;;;;;;135.55;125.35;;;4.00;99.90;;;;;;4783005;30;20525;-60
2022/12/01 23:48:42;;;;;;;137.88;127.22;;;4.00;99.90;;;;;;4784214;30;20409;-61
2022/12/01 23:51:32;;;;;;;139.38;128.63;;;4.00;99.90;;;;;;4786055;29;20428;-61
2022/12/01 23:54:03;;;;;;;137.32;126.35;;;4.00;99.90;;;;;;4784841;30;20798;-61
2022/12/01 23:56:30;;;;;;;142.48;131.60;;;4.00;99.90;;;;;;4785145;30;20452;-60
2022/12/01 23:58:57;;;;;;;128.25;118.40;;;4.00;99.90;;;;;;4784013;30;20428;-60
